sensor_id;sensor_type;location;lat;lon;timestamp;pressure;altitude;pressure_sealevel;temperature;humidity
63493;BME280;49638;47.526;10.028;2023-04-27T00:00:50;91674.72;;;7.24;79.93
63493;BME280;49638;47.526;10.028;2023-04-27T00:03:51;91666.69;;;7.19;80.60
63493;BME280;49638;47.526;10.028;2023-04-27T00:06:51;91670.84;;;7.27;80.55
63493;BME280;49638;47.526;10.028;2023-04-27T00:09:51;91671.41;;;7.29;80.48
63493;BME280;49638;47.526;10.028;2023-04-27T00:12:51;91670.16;;;7.31;80.40
63493;BME280;49638;47.526;10.028;2023-04-27T00:15:52;91672.44;;;7.28;80.63
63493;BME280;49638;47.526;10.028;2023-04-27T00:18:52;91668.41;;;7.25;80.46
63493;BME280;49638;47.526;10.028;2023-04-27T00:21:53;91673.25;;;7.28;80.80
63493;BME280;49638;47.526;10.028;2023-04-27T00:24:53;91665.69;;;7.32;80.78
63493;BME280;49638;47.526;10.028;2023-04-27T00:27:53;91658.84;;;7.31;80.62
63493;BME280;49638;47.526;10.028;2023-04-27T00:30:54;91666.19;;;7.41;80.30
63493;BME280;49638;47.526;10.028;2023-04-27T00:33:54;91661.84;;;7.46;80.16
63493;BME280;49638;47.526;10.028;2023-04-27T00:36:54;91659.81;;;7.48;80.17
63493;BME280;49638;47.526;10.028;2023-04-27T00:39:56;91644.69;;;7.44;79.53
63493;BME280;49638;47.526;10.028;2023-04-27T00:42:56;91656.13;;;7.49;79.37
63493;BME280;49638;47.526;10.028;2023-04-27T00:45:57;91662.19;;;7.50;79.43
63493;BME280;49638;47.526;10.028;2023-04-27T00:48:57;91658.91;;;7.54;79.43
63493;BME280;49638;47.526;10.028;2023-04-27T00:51:58;91658.91;;;7.54;79.32
63493;BME280;49638;47.526;10.028;2023-04-27T00:55:01;91659.72;;;7.55;79.78
63493;BME280;49638;47.526;10.028;2023-04-27T00:58:03;91653.97;;;7.46;80.01
63493;BME280;49638;47.526;10.028;2023-04-27T01:01:03;91647.69;;;7.47;80.33
63493;BME280;49638;47.526;10.028;2023-04-27T01:04:04;91651.69;;;7.50;80.30
63493;BME280;49638;47.526;10.028;2023-04-27T01:07:05;91665.50;;;7.45;80.63
63493;BME280;49638;47.526;10.028;2023-04-27T01:10:06;91662.09;;;7.45;80.69
63493;BME280;49638;47.526;10.028;2023-04-27T01:13:07;91657.03;;;7.43;80.54
63493;BME280;49638;47.526;10.028;2023-04-27T01:16:08;91655.19;;;7.44;80.95
63493;BME280;49638;47.526;10.028;2023-04-27T01:19:08;91655.19;;;7.44;81.09
63493;BME280;49638;47.526;10.028;2023-04-27T01:22:09;91646.53;;;7.43;81.04
63493;BME280;49638;47.526;10.028;2023-04-27T01:25:09;91656.59;;;7.46;81.06
63493;BME280;49638;47.526;10.028;2023-04-27T01:28:09;91645.06;;;7.47;81.08
63493;BME280;49638;47.526;10.028;2023-04-27T01:31:10;91644.03;;;7.48;81.02
63493;BME280;49638;47.526;10.028;2023-04-27T01:34:10;91638.53;;;7.38;81.30
63493;BME280;49638;47.526;10.028;2023-04-27T01:37:11;91642.53;;;7.41;81.38
63493;BME280;49638;47.526;10.028;2023-04-27T01:40:12;91657.38;;;7.47;81.16
63493;BME280;49638;47.526;10.028;2023-04-27T01:43:12;91658.66;;;7.44;81.55
63493;BME280;49638;47.526;10.028;2023-04-27T01:46:13;91658.97;;;7.36;81.83
63493;BME280;49638;47.526;10.028;2023-04-27T01:49:13;91668.09;;;7.33;82.29
63493;BME280;49638;47.526;10.028;2023-04-27T01:52:13;91665.69;;;7.32;82.51
63493;BME280;49638;47.526;10.028;2023-04-27T01:55:14;91663.63;;;7.22;82.52
63493;BME280;49638;47.526;10.028;2023-04-27T01:58:14;91676.66;;;7.29;82.44
63493;BME280;49638;47.526;10.028;2023-04-27T02:01:14;91680.53;;;7.26;82.77
63493;BME280;49638;47.526;10.028;2023-04-27T02:04:15;91679.38;;;7.22;82.92
63493;BME280;49638;47.526;10.028;2023-04-27T02:07:15;91691.50;;;7.23;83.38
63493;BME280;49638;47.526;10.028;2023-04-27T02:10:15;91679.63;;;7.21;83.30
63493;BME280;49638;47.526;10.028;2023-04-27T02:13:16;91665.19;;;7.11;83.14
63493;BME280;49638;47.526;10.028;2023-04-27T02:16:16;91674.44;;;7.14;83.29
63493;BME280;49638;47.526;10.028;2023-04-27T02:19:16;91673.66;;;7.14;83.26
63493;BME280;49638;47.526;10.028;2023-04-27T02:22:16;91665.63;;;7.08;83.44
63493;BME280;49638;47.526;10.028;2023-04-27T02:25:17;91656.78;;;7.03;83.60
63493;BME280;49638;47.526;10.028;2023-04-27T02:28:17;91681.06;;;7.17;83.53
63493;BME280;49638;47.526;10.028;2023-04-27T02:31:17;91671.59;;;7.16;83.50
63493;BME280;49638;47.526;10.028;2023-04-27T02:34:18;91681.22;;;7.22;83.44
63493;BME280;49638;47.526;10.028;2023-04-27T02:37:19;91684.00;;;7.27;83.56
63493;BME280;49638;47.526;10.028;2023-04-27T02:40:19;91682.44;;;7.19;84.03
63493;BME280;49638;47.526;10.028;2023-04-27T02:43:20;91683.22;;;7.08;84.68
63493;BME280;49638;47.526;10.028;2023-04-27T02:46:21;91679.66;;;7.02;85.30
63493;BME280;49638;47.526;10.028;2023-04-27T02:49:21;91677.69;;;6.98;85.45
63493;BME280;49638;47.526;10.028;2023-04-27T02:52:21;91669.38;;;7.01;85.35
63493;BME280;49638;47.526;10.028;2023-04-27T02:55:21;91671.75;;;7.02;85.44
63493;BME280;49638;47.526;10.028;2023-04-27T02:58:22;91669.56;;;6.99;85.34
63493;BME280;49638;47.526;10.028;2023-04-27T03:01:22;91667.31;;;7.03;85.40
63493;BME280;49638;47.526;10.028;2023-04-27T03:04:22;91670.16;;;7.01;85.23
63493;BME280;49638;47.526;10.028;2023-04-27T03:07:22;91671.13;;;7.07;85.39
63493;BME280;49638;47.526;10.028;2023-04-27T03:10:23;91673.31;;;7.10;85.28
63493;BME280;49638;47.526;10.028;2023-04-27T03:13:23;91674.38;;;7.02;86.01
63493;BME280;49638;47.526;10.028;2023-04-27T03:16:23;91667.63;;;6.95;86.03
63493;BME280;49638;47.526;10.028;2023-04-27T03:19:24;91675.16;;;6.91;86.52
63493;BME280;49638;47.526;10.028;2023-04-27T03:22:24;91664.81;;;6.78;86.38
63493;BME280;49638;47.526;10.028;2023-04-27T03:25:24;91659.56;;;6.78;86.55
63493;BME280;49638;47.526;10.028;2023-04-27T03:28:25;91675.16;;;6.91;86.41
63493;BME280;49638;47.526;10.028;2023-04-27T03:31:25;91681.66;;;6.88;86.55
63493;BME280;49638;47.526;10.028;2023-04-27T03:34:25;91694.22;;;6.86;86.45
63493;BME280;49638;47.526;10.028;2023-04-27T03:37:26;91692.81;;;6.84;86.94
63493;BME280;49638;47.526;10.028;2023-04-27T03:40:26;91690.47;;;6.76;86.92
63493;BME280;49638;47.526;10.028;2023-04-27T03:43:27;91683.06;;;6.73;86.94
63493;BME280;49638;47.526;10.028;2023-04-27T03:46:27;91694.72;;;6.77;86.85
63493;BME280;49638;47.526;10.028;2023-04-27T03:49:27;91693.09;;;6.76;87.64
63493;BME280;49638;47.526;10.028;2023-04-27T03:52:27;91699.19;;;6.76;87.70
63493;BME280;49638;47.526;10.028;2023-04-27T03:55:28;91693.66;;;6.66;87.82
63493;BME280;49638;47.526;10.028;2023-04-27T03:58:28;91699.25;;;6.70;87.85
63493;BME280;49638;47.526;10.028;2023-04-27T04:01:28;91677.97;;;6.59;87.84
63493;BME280;49638;47.526;10.028;2023-04-27T04:04:30;91694.22;;;6.68;88.09
63493;BME280;49638;47.526;10.028;2023-04-27T04:07:30;91710.94;;;6.74;88.32
63493;BME280;49638;47.526;10.028;2023-04-27T04:10:30;91694.44;;;6.67;87.99
63493;BME280;49638;47.526;10.028;2023-04-27T04:13:31;91703.03;;;6.74;87.74
63493;BME280;49638;47.526;10.028;2023-04-27T04:16:32;91690.72;;;6.74;87.92
63493;BME280;49638;47.526;10.028;2023-04-27T04:19:32;91693.69;;;6.78;87.69
63493;BME280;49638;47.526;10.028;2023-04-27T04:22:33;91703.63;;;6.76;88.15
63493;BME280;49638;47.526;10.028;2023-04-27T04:25:33;91706.41;;;6.81;88.29
63493;BME280;49638;47.526;10.028;2023-04-27T04:28:33;91705.16;;;6.83;88.18
63493;BME280;49638;47.526;10.028;2023-04-27T04:31:33;91709.63;;;6.83;88.52
63493;BME280;49638;47.526;10.028;2023-04-27T04:34:34;91708.16;;;6.87;88.29
63493;BME280;49638;47.526;10.028;2023-04-27T04:37:35;91697.47;;;6.82;88.38
63493;BME280;49638;47.526;10.028;2023-04-27T04:40:39;91706.44;;;6.93;88.67
63493;BME280;49638;47.526;10.028;2023-04-27T04:43:40;91709.66;;;6.95;88.31
63493;BME280;49638;47.526;10.028;2023-04-27T04:46:41;91703.47;;;6.89;88.02
63493;BME280;49638;47.526;10.028;2023-04-27T04:49:42;91703.69;;;6.87;88.37
63493;BME280;49638;47.526;10.028;2023-04-27T04:52:42;91702.00;;;6.93;88.38
63493;BME280;49638;47.526;10.028;2023-04-27T04:55:42;91716.00;;;7.05;88.15
63493;BME280;49638;47.526;10.028;2023-04-27T04:58:42;91717.47;;;7.01;88.44
63493;BME280;49638;47.526;10.028;2023-04-27T05:01:43;91716.31;;;6.97;88.67
63493;BME280;49638;47.526;10.028;2023-04-27T05:04:43;91717.78;;;6.93;89.07
63493;BME280;49638;47.526;10.028;2023-04-27T05:07:43;91711.19;;;7.02;88.94
63493;BME280;49638;47.526;10.028;2023-04-27T05:10:50;91699.50;;;6.98;89.54
63493;BME280;49638;47.526;10.028;2023-04-27T05:13:51;91709.69;;;7.06;89.11
63493;BME280;49638;47.526;10.028;2023-04-27T05:16:51;91705.63;;;7.10;88.80
63493;BME280;49638;47.526;10.028;2023-04-27T05:19:51;91713.72;;;7.09;88.96
63493;BME280;49638;47.526;10.028;2023-04-27T05:22:51;91716.16;;;7.10;88.87
63493;BME280;49638;47.526;10.028;2023-04-27T05:25:52;91714.25;;;6.99;88.96
63493;BME280;49638;47.526;10.028;2023-04-27T05:28:52;91719.28;;;7.01;89.13
63493;BME280;49638;47.526;10.028;2023-04-27T05:31:52;91714.25;;;6.99;89.44
63493;BME280;49638;47.526;10.028;2023-04-27T05:34:52;91720.81;;;7.08;89.39
63493;BME280;49638;47.526;10.028;2023-04-27T05:37:53;91716.59;;;7.07;89.23
63493;BME280;49638;47.526;10.028;2023-04-27T05:40:56;91707.41;;;6.98;89.83
63493;BME280;49638;47.526;10.028;2023-04-27T05:43:57;91706.88;;;7.08;89.87
63493;BME280;49638;47.526;10.028;2023-04-27T05:46:57;91710.44;;;7.14;89.84
63493;BME280;49638;47.526;10.028;2023-04-27T05:49:58;91700.50;;;7.16;89.53
63493;BME280;49638;47.526;10.028;2023-04-27T05:52:58;91708.22;;;7.29;89.72
63493;BME280;49638;47.526;10.028;2023-04-27T05:55:58;91704.25;;;7.38;89.56
63493;BME280;49638;47.526;10.028;2023-04-27T05:59:00;91710.31;;;7.50;88.91
63493;BME280;49638;47.526;10.028;2023-04-27T06:02:00;91716.31;;;7.57;88.65
63493;BME280;49638;47.526;10.028;2023-04-27T06:05:00;91716.31;;;7.57;88.32
63493;BME280;49638;47.526;10.028;2023-04-27T06:08:00;91712.22;;;7.62;88.41
63493;BME280;49638;47.526;10.028;2023-04-27T06:11:01;91716.78;;;7.66;88.39
63493;BME280;49638;47.526;10.028;2023-04-27T06:14:01;91722.97;;;7.72;88.50
63493;BME280;49638;47.526;10.028;2023-04-27T06:17:02;91723.88;;;7.77;88.20
63493;BME280;49638;47.526;10.028;2023-04-27T06:20:03;91729.50;;;7.81;88.17
63493;BME280;49638;47.526;10.028;2023-04-27T06:23:08;91731.69;;;7.84;88.17
63493;BME280;49638;47.526;10.028;2023-04-27T06:26:08;91719.47;;;7.78;88.26
63493;BME280;49638;47.526;10.028;2023-04-27T06:29:08;91733.22;;;7.92;88.30
63493;BME280;49638;47.526;10.028;2023-04-27T06:32:09;91733.22;;;7.92;88.13
63493;BME280;49638;47.526;10.028;2023-04-27T06:35:10;91732.38;;;7.91;88.04
63493;BME280;49638;47.526;10.028;2023-04-27T06:38:10;91734.81;;;7.93;88.13
63493;BME280;49638;47.526;10.028;2023-04-27T06:41:10;91735.16;;;7.96;88.20
63493;BME280;49638;47.526;10.028;2023-04-27T06:44:11;91742.59;;;7.99;88.04
63493;BME280;49638;47.526;10.028;2023-04-27T06:47:11;91744.19;;;7.89;88.39
63493;BME280;49638;47.526;10.028;2023-04-27T06:50:13;91737.78;;;7.85;88.64
63493;BME280;49638;47.526;10.028;2023-04-27T06:53:14;91740.97;;;7.87;88.69
63493;BME280;49638;47.526;10.028;2023-04-27T06:56:16;91746.38;;;7.92;88.97
63493;BME280;49638;47.526;10.028;2023-04-27T06:59:16;91750.16;;;7.96;89.02
63493;BME280;49638;47.526;10.028;2023-04-27T07:02:16;91742.47;;;7.94;89.01
63493;BME280;49638;47.526;10.028;2023-04-27T07:05:17;91744.31;;;8.05;88.83
63493;BME280;49638;47.526;10.028;2023-04-27T07:08:17;91735.03;;;8.03;88.69
63493;BME280;49638;47.526;10.028;2023-04-27T07:11:18;91759.22;;;8.23;88.52
63493;BME280;49638;47.526;10.028;2023-04-27T07:14:18;91761.84;;;8.23;88.53
63493;BME280;49638;47.526;10.028;2023-04-27T07:17:18;91749.59;;;8.17;88.50
63493;BME280;49638;47.526;10.028;2023-04-27T07:20:19;91757.19;;;8.25;88.53
63493;BME280;49638;47.526;10.028;2023-04-27T07:23:19;91753.03;;;8.18;89.23
63493;BME280;49638;47.526;10.028;2023-04-27T07:26:19;91755.19;;;8.21;89.16
63493;BME280;49638;47.526;10.028;2023-04-27T07:29:22;91762.44;;;8.25;89.54
63493;BME280;49638;47.526;10.028;2023-04-27T07:32:23;91758.53;;;8.28;89.54
63493;BME280;49638;47.526;10.028;2023-04-27T07:35:23;91765.41;;;8.29;89.83
63493;BME280;49638;47.526;10.028;2023-04-27T07:38:24;91778.03;;;8.39;90.07
63493;BME280;49638;47.526;10.028;2023-04-27T07:41:24;91779.06;;;8.38;90.17
63493;BME280;49638;47.526;10.028;2023-04-27T07:44:24;91773.59;;;8.39;90.40
63493;BME280;49638;47.526;10.028;2023-04-27T07:47:25;91774.72;;;8.43;90.36
63493;BME280;49638;47.526;10.028;2023-04-27T07:50:27;91781.38;;;8.46;90.48
63493;BME280;49638;47.526;10.028;2023-04-27T07:53:29;91777.13;;;8.45;90.43
63493;BME280;49638;47.526;10.028;2023-04-27T07:56:29;91789.03;;;8.47;89.91
63493;BME280;49638;47.526;10.028;2023-04-27T07:59:29;91783.31;;;8.50;89.82
63493;BME280;49638;47.526;10.028;2023-04-27T08:02:29;91789.84;;;8.48;89.74
63493;BME280;49638;47.526;10.028;2023-04-27T08:05:30;91795.00;;;8.43;89.63
63493;BME280;49638;47.526;10.028;2023-04-27T08:08:30;91774.94;;;8.42;90.16
63493;BME280;49638;47.526;10.028;2023-04-27T08:11:31;91789.25;;;8.69;90.57
63493;BME280;49638;47.526;10.028;2023-04-27T08:14:33;91793.50;;;8.94;90.63
63493;BME280;49638;47.526;10.028;2023-04-27T08:17:34;91788.31;;;9.11;90.26
63493;BME280;49638;47.526;10.028;2023-04-27T08:20:35;91788.19;;;9.17;89.90
63493;BME280;49638;47.526;10.028;2023-04-27T08:23:35;91788.00;;;9.07;89.87
63493;BME280;49638;47.526;10.028;2023-04-27T08:26:39;91787.50;;;9.10;90.07
63493;BME280;49638;47.526;10.028;2023-04-27T08:29:47;91796.31;;;9.16;88.97
63493;BME280;49638;47.526;10.028;2023-04-27T08:32:48;91792.66;;;9.17;88.77
63493;BME280;49638;47.526;10.028;2023-04-27T08:35:48;91789.91;;;9.12;88.85
63493;BME280;49638;47.526;10.028;2023-04-27T08:38:51;91782.34;;;9.15;88.65
63493;BME280;49638;47.526;10.028;2023-04-27T08:41:51;91790.09;;;9.34;88.90
63493;BME280;49638;47.526;10.028;2023-04-27T08:44:52;91796.47;;;9.50;89.55
63493;BME280;49638;47.526;10.028;2023-04-27T08:47:52;91780.19;;;9.53;88.96
63493;BME280;49638;47.526;10.028;2023-04-27T08:50:55;91785.66;;;9.63;88.93
63493;BME280;49638;47.526;10.028;2023-04-27T08:53:56;91781.50;;;9.67;88.64
63493;BME280;49638;47.526;10.028;2023-04-27T08:56:57;91792.63;;;9.69;87.67
63493;BME280;49638;47.526;10.028;2023-04-27T08:59:58;91785.97;;;9.66;86.98
63493;BME280;49638;47.526;10.028;2023-04-27T09:03:25;91785.97;;;9.66;85.72
63493;BME280;49638;47.526;10.028;2023-04-27T09:06:30;91776.53;;;9.70;87.08
63493;BME280;49638;47.526;10.028;2023-04-27T09:09:31;91763.69;;;9.74;87.64
63493;BME280;49638;47.526;10.028;2023-04-27T09:12:31;91772.25;;;9.81;87.79
63493;BME280;49638;47.526;10.028;2023-04-27T09:15:57;91775.91;;;9.92;88.52
63493;BME280;49638;47.526;10.028;2023-04-27T09:18:58;91776.28;;;10.01;87.80
63493;BME280;49638;47.526;10.028;2023-04-27T09:22:10;91778.56;;;10.09;87.83
63493;BME280;49638;47.526;10.028;2023-04-27T09:25:30;91762.88;;;10.02;87.58
63493;BME280;49638;47.526;10.028;2023-04-27T09:28:31;91776.47;;;10.11;87.08
63493;BME280;49638;47.526;10.028;2023-04-27T09:31:32;91749.91;;;10.01;87.03
63493;BME280;49638;47.526;10.028;2023-04-27T09:34:37;91776.56;;;10.16;86.86
63493;BME280;49638;47.526;10.028;2023-04-27T09:37:38;91769.19;;;10.18;87.33
63493;BME280;49638;47.526;10.028;2023-04-27T09:40:39;91768.19;;;10.19;87.53
63493;BME280;49638;47.526;10.028;2023-04-27T09:43:42;91771.13;;;10.23;87.17
63493;BME280;49638;47.526;10.028;2023-04-27T09:46:43;91767.06;;;10.32;87.33
63493;BME280;49638;47.526;10.028;2023-04-27T09:49:46;91759.94;;;10.32;85.98
63493;BME280;49638;47.526;10.028;2023-04-27T09:52:49;91759.72;;;10.51;86.36
63493;BME280;49638;47.526;10.028;2023-04-27T10:02:10;91766.34;;;10.87;85.93
63493;BME280;49638;47.526;10.028;2023-04-27T10:05:41;91763.81;;;10.97;84.71
63493;BME280;49638;47.526;10.028;2023-04-27T10:08:45;91759.94;;;11.05;84.96
63493;BME280;49638;47.526;10.028;2023-04-27T10:11:46;91756.88;;;11.13;84.83
63493;BME280;49638;47.526;10.028;2023-04-27T10:14:58;91754.06;;;11.20;83.90
63493;BME280;49638;47.526;10.028;2023-04-27T10:18:03;91750.75;;;11.29;84.44
63493;BME280;49638;47.526;10.028;2023-04-27T10:21:10;91752.56;;;11.51;83.84
63493;BME280;49638;47.526;10.028;2023-04-27T10:24:10;91736.47;;;11.52;84.13
63493;BME280;49638;47.526;10.028;2023-04-27T10:27:15;91740.59;;;11.70;82.11
63493;BME280;49638;47.526;10.028;2023-04-27T10:30:18;91751.16;;;11.65;82.20
63493;BME280;49638;47.526;10.028;2023-04-27T10:33:21;91746.84;;;11.59;81.66
63493;BME280;49638;47.526;10.028;2023-04-27T10:36:21;91743.59;;;11.52;81.40
63493;BME280;49638;47.526;10.028;2023-04-27T10:39:22;91743.47;;;11.42;81.44
63493;BME280;49638;47.526;10.028;2023-04-27T10:42:27;91746.34;;;11.40;79.47
63493;BME280;49638;47.526;10.028;2023-04-27T10:45:27;91745.56;;;11.40;79.66
63493;BME280;49638;47.526;10.028;2023-04-27T10:48:28;91747.66;;;11.37;79.83
63493;BME280;49638;47.526;10.028;2023-04-27T10:51:30;91739.88;;;11.31;78.67
63493;BME280;49638;47.526;10.028;2023-04-27T10:54:33;91750.75;;;11.29;78.15
63493;BME280;49638;47.526;10.028;2023-04-27T10:57:34;91741.22;;;11.28;77.95
63493;BME280;49638;47.526;10.028;2023-04-27T11:03:40;91747.81;;;11.31;77.25
63493;BME280;49638;47.526;10.028;2023-04-27T11:06:44;91737.59;;;11.34;77.41
63493;BME280;49638;47.526;10.028;2023-04-27T11:09:47;91730.19;;;11.36;76.79
63493;BME280;49638;47.526;10.028;2023-04-27T11:12:48;91731.59;;;11.44;77.12
63493;BME280;49638;47.526;10.028;2023-04-27T11:18:53;91730.50;;;11.67;76.34
63493;BME280;49638;47.526;10.028;2023-04-27T11:22:02;91735.41;;;11.80;74.05
63493;BME280;49638;47.526;10.028;2023-04-27T11:25:02;91741.16;;;11.94;75.83
63493;BME280;49638;47.526;10.028;2023-04-27T11:28:03;91734.69;;;12.12;76.47
63493;BME280;49638;47.526;10.028;2023-04-27T11:31:03;91738.53;;;12.26;75.73
63493;BME280;49638;47.526;10.028;2023-04-27T11:34:05;91728.53;;;12.34;75.13
63493;BME280;49638;47.526;10.028;2023-04-27T11:37:06;91734.94;;;12.43;74.58
63493;BME280;49638;47.526;10.028;2023-04-27T11:40:08;91742.44;;;12.51;73.92
63493;BME280;49638;47.526;10.028;2023-04-27T11:43:13;91748.31;;;12.58;73.02
63493;BME280;49638;47.526;10.028;2023-04-27T11:46:14;91740.16;;;12.65;74.19
63493;BME280;49638;47.526;10.028;2023-04-27T11:49:14;91737.88;;;12.84;74.21
63493;BME280;49638;47.526;10.028;2023-04-27T11:52:15;91745.38;;;12.97;74.11
63493;BME280;49638;47.526;10.028;2023-04-27T11:55:15;91743.28;;;13.04;73.50
63493;BME280;49638;47.526;10.028;2023-04-27T11:58:15;91741.25;;;13.16;73.54
63493;BME280;49638;47.526;10.028;2023-04-27T12:01:16;91737.56;;;13.22;73.25
63493;BME280;49638;47.526;10.028;2023-04-27T12:04:16;91743.47;;;13.35;72.94
63493;BME280;49638;47.526;10.028;2023-04-27T12:07:17;91736.59;;;13.34;72.38
63493;BME280;49638;47.526;10.028;2023-04-27T12:10:17;91735.31;;;13.46;71.89
63493;BME280;49638;47.526;10.028;2023-04-27T12:13:17;91748.88;;;13.50;72.12
63493;BME280;49638;47.526;10.028;2023-04-27T12:16:18;91738.78;;;13.52;71.54
63493;BME280;49638;47.526;10.028;2023-04-27T12:19:20;91733.50;;;13.52;70.60
63493;BME280;49638;47.526;10.028;2023-04-27T12:22:23;91738.84;;;13.62;70.40
63493;BME280;49638;47.526;10.028;2023-04-27T12:25:23;91737.22;;;13.61;69.86
63493;BME280;49638;47.526;10.028;2023-04-27T12:28:24;91737.25;;;13.66;69.25
63493;BME280;49638;47.526;10.028;2023-04-27T12:31:24;91740.97;;;13.70;68.76
63493;BME280;49638;47.526;10.028;2023-04-27T12:34:25;91728.50;;;13.76;68.91
63493;BME280;49638;47.526;10.028;2023-04-27T12:37:25;91721.34;;;13.77;68.23
63493;BME280;49638;47.526;10.028;2023-04-27T12:40:25;91722.94;;;13.83;68.34
63493;BME280;49638;47.526;10.028;2023-04-27T12:43:25;91724.03;;;13.87;68.86
63493;BME280;49638;47.526;10.028;2023-04-27T12:46:26;91724.56;;;13.94;68.59
63493;BME280;49638;47.526;10.028;2023-04-27T12:49:26;91724.56;;;13.94;67.91
63493;BME280;49638;47.526;10.028;2023-04-27T12:52:26;91721.34;;;13.92;67.75
63493;BME280;49638;47.526;10.028;2023-04-27T12:55:26;91718.72;;;13.97;67.01
63493;BME280;49638;47.526;10.028;2023-04-27T12:58:27;91714.72;;;13.84;66.80
63493;BME280;49638;47.526;10.028;2023-04-27T13:01:27;91709.38;;;13.74;66.55
63493;BME280;49638;47.526;10.028;2023-04-27T13:04:29;91716.28;;;13.75;66.69
63493;BME280;49638;47.526;10.028;2023-04-27T13:07:30;91712.78;;;13.64;66.96
63493;BME280;49638;47.526;10.028;2023-04-27T13:10:30;91723.94;;;13.61;66.41
63493;BME280;49638;47.526;10.028;2023-04-27T13:13:31;91706.38;;;13.55;66.29
63493;BME280;49638;47.526;10.028;2023-04-27T13:16:31;91707.75;;;13.68;66.90
63493;BME280;49638;47.526;10.028;2023-04-27T13:19:31;91702.47;;;13.73;66.13
63493;BME280;49638;47.526;10.028;2023-04-27T13:22:31;91703.00;;;13.75;65.54
63493;BME280;49638;47.526;10.028;2023-04-27T13:25:32;91693.13;;;13.65;64.79
63493;BME280;49638;47.526;10.028;2023-04-27T13:28:33;91699.50;;;13.64;63.98
63493;BME280;49638;47.526;10.028;2023-04-27T13:31:33;91691.00;;;13.57;63.95
63493;BME280;49638;47.526;10.028;2023-04-27T13:34:33;91701.66;;;13.62;63.88
63493;BME280;49638;47.526;10.028;2023-04-27T13:37:33;91701.66;;;13.62;64.20
63493;BME280;49638;47.526;10.028;2023-04-27T13:40:34;91697.38;;;13.56;63.95
63493;BME280;49638;47.526;10.028;2023-04-27T13:43:34;91686.50;;;13.53;63.81
63493;BME280;49638;47.526;10.028;2023-04-27T13:46:34;91692.59;;;13.58;64.59
63493;BME280;49638;47.526;10.028;2023-04-27T13:49:35;91693.41;;;13.64;64.41
63493;BME280;49638;47.526;10.028;2023-04-27T13:52:36;91693.16;;;13.70;63.75
63493;BME280;49638;47.526;10.028;2023-04-27T13:55:36;91696.38;;;13.72;63.76
63493;BME280;49638;47.526;10.028;2023-04-27T13:58:37;91685.72;;;13.67;63.25
63493;BME280;49638;47.526;10.028;2023-04-27T14:01:37;91686.78;;;13.66;62.98
63493;BME280;49638;47.526;10.028;2023-04-27T14:04:38;91691.31;;;13.66;62.49
63493;BME280;49638;47.526;10.028;2023-04-27T14:07:39;91683.03;;;13.57;62.14
63493;BME280;49638;47.526;10.028;2023-04-27T14:10:39;91681.97;;;13.53;62.16
63493;BME280;49638;47.526;10.028;2023-04-27T14:13:40;91678.50;;;13.47;62.26
63493;BME280;49638;47.526;10.028;2023-04-27T14:16:40;91685.16;;;13.55;62.03
63493;BME280;49638;47.526;10.028;2023-04-27T14:19:40;91683.03;;;13.57;61.84
63493;BME280;49638;47.526;10.028;2023-04-27T14:22:41;91679.84;;;13.55;62.04
63493;BME280;49638;47.526;10.028;2023-04-27T14:25:44;91679.84;;;13.55;62.12
63493;BME280;49638;47.526;10.028;2023-04-27T14:28:44;91682.78;;;13.59;62.65
63493;BME280;49638;47.526;10.028;2023-04-27T14:31:45;91673.22;;;13.58;62.14
63493;BME280;49638;47.526;10.028;2023-04-27T14:34:46;91685.44;;;13.59;61.84
63493;BME280;49638;47.526;10.028;2023-04-27T14:37:46;91683.59;;;13.59;61.44
63493;BME280;49638;47.526;10.028;2023-04-27T14:40:46;91679.31;;;13.53;61.78
63493;BME280;49638;47.526;10.028;2023-04-27T14:43:47;91673.47;;;13.51;61.49
63493;BME280;49638;47.526;10.028;2023-04-27T14:46:47;91683.56;;;13.49;61.75
63493;BME280;49638;47.526;10.028;2023-04-27T14:49:48;91688.34;;;13.52;61.88
63493;BME280;49638;47.526;10.028;2023-04-27T14:52:48;91693.09;;;13.50;61.68
63493;BME280;49638;47.526;10.028;2023-04-27T14:55:48;91669.72;;;13.42;61.30
63493;BME280;49638;47.526;10.028;2023-04-27T14:58:49;91668.38;;;13.44;61.49
63493;BME280;49638;47.526;10.028;2023-04-27T15:01:50;91687.28;;;13.53;61.44
63493;BME280;49638;47.526;10.028;2023-04-27T15:04:50;91677.44;;;13.43;61.33
63493;BME280;49638;47.526;10.028;2023-04-27T15:07:51;91672.88;;;13.34;61.10
63493;BME280;49638;47.526;10.028;2023-04-27T15:10:51;91694.66;;;13.41;61.23
63493;BME280;49638;47.526;10.028;2023-04-27T15:13:56;91672.06;;;13.28;61.08
63493;BME280;49638;47.526;10.028;2023-04-27T15:16:56;91692.28;;;13.39;61.46
63493;BME280;49638;47.526;10.028;2023-04-27T15:19:57;91680.31;;;13.32;61.35
63493;BME280;49638;47.526;10.028;2023-04-27T15:22:57;91692.00;;;13.36;60.95
63493;BME280;49638;47.526;10.028;2023-04-27T15:25:57;91690.16;;;13.41;60.97
63493;BME280;49638;47.526;10.028;2023-04-27T15:28:57;91691.50;;;13.44;61.08
63493;BME280;49638;47.526;10.028;2023-04-27T15:31:58;91687.78;;;13.40;61.56
63493;BME280;49638;47.526;10.028;2023-04-27T15:34:59;91683.00;;;13.42;61.68
63493;BME280;49638;47.526;10.028;2023-04-27T15:37:59;91686.69;;;13.41;61.95
63493;BME280;49638;47.526;10.028;2023-04-27T15:40:59;91686.44;;;13.37;61.84
63493;BME280;49638;47.526;10.028;2023-04-27T15:44:00;91673.94;;;13.33;61.89
63493;BME280;49638;47.526;10.028;2023-04-27T15:47:00;91681.13;;;13.32;61.77
63493;BME280;49638;47.526;10.028;2023-04-27T15:50:01;91679.53;;;13.36;61.72
63493;BME280;49638;47.526;10.028;2023-04-27T15:53:01;91670.75;;;13.31;61.90
63493;BME280;49638;47.526;10.028;2023-04-27T15:56:01;91671.28;;;13.33;61.76
63493;BME280;49638;47.526;10.028;2023-04-27T15:59:02;91677.38;;;13.33;61.88
63493;BME280;49638;47.526;10.028;2023-04-27T16:02:03;91677.66;;;13.32;61.28
63493;BME280;49638;47.526;10.028;2023-04-27T16:05:04;91667.28;;;13.30;61.18